createdAt,value
2022-09-13T00:01:28.135Z,20.20
2022-09-13T00:03:55.374Z,20.20
2022-09-13T00:06:22.857Z,20.20
2022-09-13T00:08:50.654Z,20.20
2022-09-13T00:11:24.490Z,20.10
2022-09-13T00:13:52.478Z,20.10
2022-09-13T00:16:22.218Z,20.00
2022-09-13T00:18:49.578Z,20.00
2022-09-13T00:21:18.843Z,20.00
2022-09-13T00:23:48.155Z,20.00
2022-09-13T00:26:18.267Z,20.00
2022-09-13T00:28:45.574Z,19.90
2022-09-13T00:31:12.850Z,19.90
2022-09-13T00:33:39.871Z,19.90
2022-09-13T00:36:09.596Z,19.90
2022-09-13T00:38:40.454Z,19.80
2022-09-13T00:41:11.687Z,19.80
2022-09-13T00:43:55.609Z,19.80
2022-09-13T00:46:22.454Z,19.70
2022-09-13T00:48:53.268Z,19.70
2022-09-13T00:51:20.683Z,19.70
2022-09-13T00:53:52.408Z,19.70
2022-09-13T00:56:25.315Z,19.60
2022-09-13T00:59:10.245Z,19.60
2022-09-13T01:01:51.734Z,19.60
2022-09-13T01:04:21.022Z,19.60
2022-09-13T01:06:49.334Z,19.60
2022-09-13T01:09:16.315Z,19.60
2022-09-13T01:11:55.730Z,19.60
2022-09-13T01:14:24.115Z,19.60
2022-09-13T01:16:52.427Z,19.50
2022-09-13T01:19:19.383Z,19.50
2022-09-13T01:22:24.254Z,19.50
2022-09-13T01:24:57.446Z,19.50
2022-09-13T01:27:41.142Z,19.50
2022-09-13T01:30:12.101Z,19.50
2022-09-13T01:33:02.441Z,19.40
2022-09-13T01:35:54.077Z,19.40
2022-09-13T01:38:58.731Z,19.40
2022-09-13T01:41:31.731Z,19.40
2022-09-13T01:44:33.097Z,19.40
2022-09-13T01:47:30.723Z,19.40
2022-09-13T01:50:20.104Z,19.40
2022-09-13T01:52:57.839Z,19.40
2022-09-13T01:55:39.542Z,19.40
2022-09-13T01:58:23.910Z,19.40
2022-09-13T02:01:18.913Z,19.30
2022-09-13T02:03:50.537Z,19.30
2022-09-13T02:06:51.976Z,19.30
2022-09-13T02:09:23.298Z,19.30
2022-09-13T02:11:56.439Z,19.30
2022-09-13T02:14:31.301Z,19.30
2022-09-13T02:17:04.468Z,19.30
2022-09-13T02:19:50.094Z,19.30
2022-09-13T02:22:21.275Z,19.30
2022-09-13T02:24:55.840Z,19.30
2022-09-13T02:27:27.614Z,19.30
2022-09-13T02:30:02.424Z,19.30
2022-09-13T02:32:38.134Z,19.20
2022-09-13T02:35:12.188Z,19.30
2022-09-13T02:37:42.001Z,19.30
2022-09-13T02:40:14.921Z,19.30
2022-09-13T02:42:54.529Z,19.20
2022-09-13T02:45:27.041Z,19.20
2022-09-13T02:48:10.512Z,19.20
2022-09-13T02:50:37.361Z,19.20
2022-09-13T02:53:25.868Z,19.20
2022-09-13T02:56:16.299Z,19.20
2022-09-13T02:58:48.340Z,19.20
2022-09-13T03:01:15.635Z,19.20
2022-09-13T03:03:43.823Z,19.20
2022-09-13T03:06:11.089Z,19.20
2022-09-13T03:08:38.014Z,19.20
2022-09-13T03:11:08.070Z,19.20
2022-09-13T03:14:13.790Z,19.20
2022-09-13T03:16:51.612Z,19.20
2022-09-13T03:19:59.355Z,19.20
2022-09-13T03:22:52.762Z,19.20
2022-09-13T03:25:23.504Z,19.20
2022-09-13T03:28:13.743Z,19.20
2022-09-13T03:30:48.145Z,19.20
2022-09-13T03:33:31.008Z,19.20
2022-09-13T03:36:11.063Z,19.20
2022-09-13T03:39:00.560Z,19.20
2022-09-13T03:41:36.952Z,19.20
2022-09-13T03:44:08.902Z,19.20
2022-09-13T03:46:41.300Z,19.20
2022-09-13T03:49:13.158Z,19.20
2022-09-13T03:51:41.426Z,19.20
2022-09-13T03:54:23.555Z,19.10
2022-09-13T03:57:13.275Z,19.20
2022-09-13T03:59:48.029Z,19.20
2022-09-13T04:02:16.080Z,19.10
2022-09-13T04:04:44.438Z,19.10
2022-09-13T04:07:14.024Z,19.10
2022-09-13T04:09:41.330Z,19.10
2022-09-13T04:12:10.152Z,19.10
2022-09-13T04:14:37.333Z,19.10
2022-09-13T04:17:04.278Z,19.10
2022-09-13T04:19:31.866Z,19.10
2022-09-13T04:21:59.153Z,19.10
2022-09-13T04:24:28.105Z,19.10
2022-09-13T04:26:56.309Z,19.10
2022-09-13T04:29:25.031Z,19.10
2022-09-13T04:31:53.538Z,19.10
2022-09-13T04:34:22.326Z,19.10
2022-09-13T04:36:52.270Z,19.10
2022-09-13T04:39:20.283Z,19.10
2022-09-13T04:41:48.869Z,19.10
2022-09-13T04:44:17.517Z,19.10
2022-09-13T04:46:48.235Z,19.00
2022-09-13T04:49:17.136Z,19.00
2022-09-13T04:51:44.438Z,19.00
2022-09-13T04:54:15.538Z,19.00
2022-09-13T04:56:47.133Z,19.00
2022-09-13T04:59:14.448Z,19.00
2022-09-13T05:01:42.007Z,19.00
2022-09-13T05:04:10.054Z,19.00
2022-09-13T05:06:37.768Z,19.10
2022-09-13T05:09:05.551Z,19.10
2022-09-13T05:11:32.864Z,19.10
2022-09-13T05:14:01.250Z,19.20
2022-09-13T05:16:31.367Z,19.20
2022-09-13T05:18:58.635Z,19.20
2022-09-13T05:21:27.872Z,19.30
2022-09-13T05:23:55.757Z,19.30
2022-09-13T05:26:24.781Z,19.30
2022-09-13T05:28:51.718Z,19.40
2022-09-13T05:31:28.341Z,19.40
2022-09-13T05:34:01.078Z,19.50
2022-09-13T05:36:29.008Z,19.60
2022-09-13T05:39:18.603Z,19.90
2022-09-13T05:41:45.164Z,20.70
2022-09-13T05:44:13.587Z,21.70
2022-09-13T05:46:42.835Z,22.50
2022-09-13T05:49:12.474Z,23.10
2022-09-13T05:51:39.660Z,23.70
2022-09-13T05:54:06.623Z,24.10
2022-09-13T05:56:33.675Z,24.60
2022-09-13T05:59:00.710Z,24.90
2022-09-13T06:01:29.223Z,25.20
2022-09-13T06:03:58.609Z,25.30
2022-09-13T06:06:26.204Z,25.40
2022-09-13T06:08:55.151Z,25.40
2022-09-13T06:11:22.870Z,25.40
2022-09-13T06:13:50.276Z,25.50
2022-09-13T06:16:17.633Z,25.80
2022-09-13T06:18:45.361Z,26.10
2022-09-13T06:21:31.669Z,26.50
2022-09-13T06:23:58.902Z,27.20
2022-09-13T06:26:28.242Z,27.80
2022-09-13T06:28:57.664Z,28.70
2022-09-13T06:31:26.983Z,29.40
2022-09-13T06:34:03.051Z,29.90
2022-09-13T06:36:31.207Z,30.60
2022-09-13T06:39:00.572Z,31.10
2022-09-13T06:41:28.356Z,31.50
2022-09-13T06:43:57.790Z,31.80
2022-09-13T06:46:25.960Z,32.10
2022-09-13T06:48:53.531Z,32.70
2022-09-13T06:51:23.856Z,33.10
2022-09-13T06:53:52.200Z,33.50
2022-09-13T06:56:30.990Z,34.00
2022-09-13T06:59:00.894Z,34.40
2022-09-13T07:01:30.616Z,34.70
2022-09-13T07:04:12.567Z,35.00
2022-09-13T07:06:42.568Z,35.30
2022-09-13T07:09:12.973Z,35.50
2022-09-13T07:11:42.100Z,36.00
2022-09-13T07:14:09.485Z,36.10
2022-09-13T07:16:38.182Z,36.20
2022-09-13T07:19:07.633Z,36.10
2022-09-13T07:21:35.626Z,36.10
2022-09-13T07:24:03.152Z,36.00
2022-09-13T07:26:31.672Z,35.60
2022-09-13T07:29:01.948Z,35.50
2022-09-13T07:31:32.320Z,35.50
2022-09-13T07:34:02.120Z,35.40
2022-09-13T07:36:30.839Z,35.40
2022-09-13T07:38:59.470Z,35.40
2022-09-13T07:41:29.606Z,35.20
2022-09-13T07:43:58.800Z,35.30
2022-09-13T07:46:27.971Z,35.30
2022-09-13T07:48:56.738Z,35.00
2022-09-13T07:51:31.856Z,34.90
2022-09-13T07:54:01.575Z,35.00
2022-09-13T07:56:34.235Z,35.50
2022-09-13T07:59:03.587Z,35.80
2022-09-13T08:01:35.799Z,36.00
2022-09-13T08:04:05.733Z,36.70
2022-09-13T08:06:34.414Z,37.30
2022-09-13T08:09:01.738Z,37.60
2022-09-13T08:11:37.713Z,38.00
2022-09-13T08:14:06.563Z,38.50
2022-09-13T08:16:34.060Z,38.50
2022-09-13T08:19:03.850Z,38.80
2022-09-13T08:21:39.101Z,39.00
2022-09-13T08:24:08.748Z,39.20
2022-09-13T08:26:36.478Z,38.90
2022-09-13T08:29:05.996Z,38.90
2022-09-13T08:31:33.838Z,39.20
2022-09-13T08:34:00.756Z,39.40
2022-09-13T08:36:29.085Z,39.60
2022-09-13T08:38:59.515Z,39.40
2022-09-13T08:41:35.339Z,39.50
2022-09-13T08:44:29.741Z,39.90
2022-09-13T08:47:18.038Z,40.00
2022-09-13T08:49:48.433Z,40.00
2022-09-13T08:52:15.319Z,39.80
2022-09-13T08:54:43.198Z,39.70
2022-09-13T08:57:16.917Z,40.00
2022-09-13T09:00:01.888Z,40.20
2022-09-13T09:02:50.450Z,39.90
2022-09-13T09:05:27.781Z,39.50
2022-09-13T09:08:15.542Z,39.10
2022-09-13T09:10:49.132Z,38.90
2022-09-13T09:13:24.536Z,38.70
2022-09-13T09:16:33.601Z,38.70
2022-09-13T09:19:16.761Z,39.20
2022-09-13T09:21:44.982Z,39.10
2022-09-13T09:24:21.976Z,39.00
2022-09-13T09:26:49.038Z,39.40
2022-09-13T09:29:25.696Z,39.50
2022-09-13T09:32:06.391Z,39.70
2022-09-13T09:34:53.302Z,40.10
2022-09-13T09:37:27.230Z,40.50
2022-09-13T09:39:58.562Z,40.60
2022-09-13T09:42:29.532Z,40.20
2022-09-13T09:45:23.308Z,40.00
2022-09-13T09:47:52.980Z,39.90
2022-09-13T09:50:28.964Z,40.00
2022-09-13T09:53:05.001Z,40.40
2022-09-13T09:56:00.634Z,40.50
2022-09-13T09:58:45.222Z,40.90
2022-09-13T10:01:22.921Z,41.10
2022-09-13T10:04:11.131Z,40.30
2022-09-13T10:06:42.443Z,39.90
2022-09-13T10:09:18.763Z,39.90
2022-09-13T10:11:58.498Z,39.80
2022-09-13T10:14:45.922Z,39.80
2022-09-13T10:17:18.547Z,39.90
2022-09-13T10:20:01.320Z,40.00
2022-09-13T10:22:33.141Z,39.90
2022-09-13T10:25:22.957Z,39.90
2022-09-13T10:27:57.344Z,40.50
2022-09-13T10:30:45.646Z,41.00
2022-09-13T10:33:35.787Z,41.00
2022-09-13T10:36:25.133Z,40.20
2022-09-13T10:39:03.227Z,39.40
2022-09-13T10:41:33.952Z,38.60
2022-09-13T10:44:07.741Z,38.60
2022-09-13T10:46:39.843Z,38.90
2022-09-13T10:49:26.729Z,39.30
2022-09-13T10:51:54.586Z,39.60
2022-09-13T10:54:24.296Z,39.90
2022-09-13T10:56:51.840Z,40.00
2022-09-13T10:59:22.505Z,40.10
2022-09-13T11:02:01.376Z,40.30
2022-09-13T11:04:37.242Z,40.70
2022-09-13T11:07:23.103Z,40.70
2022-09-13T11:09:54.951Z,40.40
2022-09-13T11:12:58.931Z,40.20
2022-09-13T11:16:03.705Z,40.50
2022-09-13T11:18:49.970Z,40.30
2022-09-13T11:21:32.403Z,38.30
2022-09-13T11:24:33.308Z,35.60
2022-09-13T11:27:17.749Z,33.80
2022-09-13T11:30:18.877Z,32.60
2022-09-13T11:33:23.077Z,31.80
2022-09-13T11:36:13.335Z,31.30
2022-09-13T11:38:59.178Z,31.10
2022-09-13T11:41:35.323Z,30.70
2022-09-13T11:44:32.553Z,30.60
2022-09-13T11:47:05.703Z,30.70
2022-09-13T11:50:07.434Z,30.40
2022-09-13T11:52:37.317Z,30.40
2022-09-13T11:55:25.225Z,30.50
2022-09-13T11:58:05.514Z,30.50
2022-09-13T12:00:40.647Z,30.40
2022-09-13T12:03:20.801Z,30.20
2022-09-13T12:05:52.778Z,29.80
2022-09-13T12:08:42.650Z,29.50
2022-09-13T12:11:19.672Z,29.20
2022-09-13T12:14:03.808Z,29.40
2022-09-13T12:16:38.613Z,29.70
2022-09-13T12:19:12.899Z,30.10
2022-09-13T12:21:41.889Z,30.20
2022-09-13T12:24:19.911Z,30.50
2022-09-13T12:27:00.989Z,30.60
2022-09-13T12:29:41.144Z,30.80
2022-09-13T12:32:10.189Z,31.00
2022-09-13T12:35:12.775Z,31.00
2022-09-13T12:37:51.884Z,31.00
2022-09-13T12:40:45.501Z,30.70
2022-09-13T12:43:42.910Z,30.40
2022-09-13T12:46:16.163Z,30.50
2022-09-13T12:48:42.929Z,30.80
2022-09-13T12:51:43.629Z,30.80
2022-09-13T12:54:16.509Z,30.80
2022-09-13T12:56:46.206Z,30.90
2022-09-13T12:59:41.823Z,30.80
2022-09-13T13:02:33.042Z,30.80
2022-09-13T13:05:07.599Z,30.70
2022-09-13T13:07:38.059Z,30.30
2022-09-13T13:10:06.545Z,30.10
2022-09-13T13:12:35.832Z,30.10
2022-09-13T13:15:08.267Z,30.10
2022-09-13T13:17:52.748Z,30.00
2022-09-13T13:20:41.263Z,29.80
2022-09-13T13:23:23.524Z,29.70
2022-09-13T13:26:01.545Z,29.90
2022-09-13T13:28:43.613Z,30.10
2022-09-13T13:31:23.947Z,30.20
2022-09-13T13:34:00.970Z,30.00
2022-09-13T13:36:29.709Z,29.80
2022-09-13T13:38:57.810Z,29.60
2022-09-13T13:41:33.830Z,29.70
2022-09-13T13:44:02.489Z,29.70
2022-09-13T13:46:33.023Z,29.80
2022-09-13T13:49:30.677Z,29.70
2022-09-13T13:52:06.757Z,29.60
2022-09-13T13:55:12.667Z,29.60
2022-09-13T13:57:57.810Z,29.60
2022-09-13T14:00:28.548Z,29.60
2022-09-13T14:03:16.453Z,29.60
2022-09-13T14:05:43.464Z,29.60
2022-09-13T14:08:32.792Z,29.60
2022-09-13T14:10:59.701Z,29.70
2022-09-13T14:13:38.446Z,29.70
2022-09-13T14:16:08.299Z,29.80
2022-09-13T14:18:49.002Z,29.90
2022-09-13T14:21:27.384Z,30.10
2022-09-13T14:24:26.377Z,30.10
2022-09-13T14:26:59.750Z,30.10
2022-09-13T14:29:27.518Z,30.00
2022-09-13T14:32:02.611Z,30.20
2022-09-13T14:34:36.389Z,30.40
2022-09-13T14:37:07.077Z,30.50
2022-09-13T14:39:34.181Z,30.60
2022-09-13T14:42:12.322Z,30.70
2022-09-13T14:44:44.671Z,31.00
2022-09-13T14:47:20.254Z,31.40
2022-09-13T14:49:52.764Z,31.70
2022-09-13T14:52:43.565Z,31.70
2022-09-13T14:55:17.112Z,31.60
2022-09-13T14:57:52.865Z,31.50
2022-09-13T15:00:22.637Z,31.40
2022-09-13T15:02:56.105Z,31.70
2022-09-13T15:05:25.496Z,31.90
2022-09-13T15:07:52.598Z,32.10
2022-09-13T15:10:33.447Z,32.40
2022-09-13T15:13:06.466Z,32.50
2022-09-13T15:15:41.745Z,32.40
2022-09-13T15:18:19.943Z,32.30
2022-09-13T15:20:49.065Z,32.30
2022-09-13T15:23:19.368Z,32.40
2022-09-13T15:25:55.820Z,32.50
2022-09-13T15:28:32.884Z,32.80
2022-09-13T15:31:01.371Z,33.00
2022-09-13T15:33:34.164Z,33.20
2022-09-13T15:36:19.451Z,33.30
2022-09-13T15:39:09.150Z,33.30
2022-09-13T15:41:38.650Z,32.90
2022-09-13T15:44:08.139Z,32.60
2022-09-13T15:46:47.181Z,32.50
2022-09-13T15:49:17.954Z,32.20
2022-09-13T15:51:45.692Z,32.00
2022-09-13T15:54:14.561Z,31.70
2022-09-13T15:56:47.077Z,31.40
2022-09-13T15:59:15.613Z,31.10
2022-09-13T16:01:44.372Z,30.70
2022-09-13T16:04:12.361Z,30.40
2022-09-13T16:06:39.767Z,30.20
2022-09-13T16:09:33.044Z,29.80
2022-09-13T16:11:59.965Z,29.60
2022-09-13T16:14:27.047Z,29.30
2022-09-13T16:16:56.551Z,29.10
2022-09-13T16:19:25.218Z,29.00
2022-09-13T16:21:52.142Z,28.80
2022-09-13T16:24:19.148Z,28.60
2022-09-13T16:26:46.107Z,28.40
2022-09-13T16:29:13.395Z,28.30
2022-09-13T16:31:41.200Z,28.10
2022-09-13T16:34:08.830Z,27.90
2022-09-13T16:36:36.255Z,27.80
2022-09-13T16:39:03.281Z,27.70
2022-09-13T16:41:30.432Z,27.60
2022-09-13T16:43:58.277Z,27.60
2022-09-13T16:46:25.453Z,27.40
2022-09-13T16:48:56.935Z,27.30
2022-09-13T16:51:25.015Z,27.20
2022-09-13T16:53:53.101Z,27.10
2022-09-13T16:56:23.116Z,27.00
2022-09-13T16:58:51.787Z,26.90
2022-09-13T17:01:22.152Z,26.80
2022-09-13T17:03:53.941Z,26.70
2022-09-13T17:06:22.940Z,26.60
2022-09-13T17:09:00.664Z,26.60
2022-09-13T17:11:30.560Z,26.50
2022-09-13T17:13:58.142Z,26.40
2022-09-13T17:16:29.616Z,26.30
2022-09-13T17:18:58.848Z,26.20
2022-09-13T17:21:27.179Z,26.20
2022-09-13T17:23:54.717Z,26.10
2022-09-13T17:26:22.449Z,26.00
2022-09-13T17:28:49.984Z,26.00
2022-09-13T17:31:17.223Z,25.90
2022-09-13T17:33:44.312Z,25.80
2022-09-13T17:36:13.594Z,25.70
2022-09-13T17:38:41.556Z,25.70
2022-09-13T17:41:17.396Z,25.60
2022-09-13T17:43:45.705Z,25.60
2022-09-13T17:46:18.805Z,25.50
2022-09-13T17:48:45.853Z,25.50
2022-09-13T17:51:18.421Z,25.40
2022-09-13T17:53:49.276Z,25.40
2022-09-13T17:56:21.856Z,25.30
2022-09-13T17:58:49.762Z,25.20
2022-09-13T18:01:16.835Z,25.20
2022-09-13T18:03:44.242Z,25.20
2022-09-13T18:06:14.067Z,25.10
2022-09-13T18:08:41.725Z,25.00
2022-09-13T18:11:14.737Z,24.90
2022-09-13T18:13:44.038Z,24.80
2022-09-13T18:16:37.607Z,24.70
2022-09-13T18:19:46.061Z,24.70
2022-09-13T18:22:21.175Z,24.50
2022-09-13T18:24:48.132Z,24.50
2022-09-13T18:27:15.016Z,24.40
2022-09-13T18:29:42.632Z,24.30
2022-09-13T18:32:09.568Z,24.30
2022-09-13T18:34:36.584Z,24.20
2022-09-13T18:37:03.545Z,24.20
2022-09-13T18:39:30.543Z,24.20
2022-09-13T18:41:57.499Z,24.10
2022-09-13T18:44:24.430Z,24.00
2022-09-13T18:46:52.987Z,24.00
2022-09-13T18:49:22.457Z,23.90
2022-09-13T18:51:52.316Z,23.80
2022-09-13T18:54:19.302Z,23.80
2022-09-13T18:56:47.717Z,23.80
2022-09-13T18:59:14.909Z,23.70
2022-09-13T19:01:43.885Z,23.60
2022-09-13T19:04:16.572Z,23.60
2022-09-13T19:06:52.114Z,23.60
2022-09-13T19:09:20.902Z,23.60
2022-09-13T19:11:50.055Z,23.60
2022-09-13T19:14:18.481Z,23.50
2022-09-13T19:16:45.555Z,23.50
2022-09-13T19:19:12.747Z,23.50
2022-09-13T19:21:39.744Z,23.40
2022-09-13T19:24:11.633Z,23.40
2022-09-13T19:26:40.907Z,23.40
2022-09-13T19:29:11.478Z,23.30
2022-09-13T19:31:42.083Z,23.30
2022-09-13T19:34:10.772Z,23.30
2022-09-13T19:36:49.961Z,23.20
2022-09-13T19:39:29.173Z,23.20
2022-09-13T19:42:22.014Z,23.20
2022-09-13T19:44:50.800Z,23.20
2022-09-13T19:48:02.198Z,23.10
2022-09-13T19:50:05.243Z,23.00
2022-09-13T19:52:32.184Z,23.00
2022-09-13T19:54:59.742Z,23.00
2022-09-13T19:57:26.717Z,23.00
2022-09-13T19:59:53.661Z,22.90
2022-09-13T20:02:20.628Z,22.90
2022-09-13T20:04:48.450Z,22.90
2022-09-13T20:07:15.522Z,22.80
2022-09-13T20:09:42.574Z,22.80
2022-09-13T20:12:10.104Z,22.80
2022-09-13T20:14:38.115Z,22.80
2022-09-13T20:17:07.107Z,22.80
2022-09-13T20:19:42.470Z,22.80
2022-09-13T20:22:11.954Z,22.80
2022-09-13T20:24:38.908Z,22.80
2022-09-13T20:27:05.980Z,22.80
2022-09-13T20:29:33.072Z,22.70
2022-09-13T20:32:00.462Z,22.70
2022-09-13T20:34:27.986Z,22.70
2022-09-13T20:36:54.946Z,22.70
2022-09-13T20:39:21.877Z,22.60
2022-09-13T20:41:50.054Z,22.60
2022-09-13T20:44:17.580Z,22.60
2022-09-13T20:46:44.559Z,22.60
2022-09-13T20:49:11.906Z,22.50
2022-09-13T20:51:39.568Z,22.50
2022-09-13T20:54:07.084Z,22.40
2022-09-13T20:56:36.273Z,22.40
2022-09-13T20:59:04.124Z,22.30
2022-09-13T21:01:32.329Z,22.30
2022-09-13T21:04:00.346Z,22.30
2022-09-13T21:06:29.828Z,22.30
2022-09-13T21:08:59.763Z,22.30
2022-09-13T21:11:34.832Z,22.30
2022-09-13T21:14:04.733Z,22.20
2022-09-13T21:16:40.803Z,22.30
2022-09-13T21:19:08.427Z,22.30
2022-09-13T21:21:38.353Z,22.20
2022-09-13T21:24:09.580Z,22.30
2022-09-13T21:26:39.686Z,22.20
2022-09-13T21:29:06.688Z,22.20
2022-09-13T21:31:33.970Z,22.20
2022-09-13T21:34:04.244Z,22.20
2022-09-13T21:36:34.694Z,22.20
2022-09-13T21:39:02.238Z,22.20
2022-09-13T21:41:30.020Z,22.10
2022-09-13T21:43:57.942Z,22.10
2022-09-13T21:46:27.828Z,22.10
2022-09-13T21:48:57.047Z,22.10
2022-09-13T21:51:33.547Z,22.00
2022-09-13T21:54:02.558Z,22.10
2022-09-13T21:56:32.877Z,22.10
2022-09-13T21:59:11.878Z,22.10
2022-09-13T22:01:39.718Z,22.10
2022-09-13T22:04:08.204Z,22.10
2022-09-13T22:06:35.973Z,22.10
2022-09-13T22:09:07.430Z,22.10
2022-09-13T22:11:40.192Z,22.10
2022-09-13T22:14:09.488Z,22.10
2022-09-13T22:16:39.099Z,22.10
2022-09-13T22:19:11.974Z,22.10
2022-09-13T22:21:41.512Z,22.10
2022-09-13T22:24:10.256Z,22.10
2022-09-13T22:26:40.468Z,22.10
2022-09-13T22:29:09.741Z,22.10
2022-09-13T22:31:41.696Z,22.10
2022-09-13T22:34:12.741Z,22.10
2022-09-13T22:36:39.832Z,22.10
2022-09-13T22:39:07.360Z,22.10
2022-09-13T22:41:34.831Z,22.20
2022-09-13T22:44:03.195Z,22.20
2022-09-13T22:46:44.271Z,22.20
2022-09-13T22:49:16.160Z,22.20
2022-09-13T22:51:45.226Z,22.20
2022-09-13T22:54:13.651Z,22.10
2022-09-13T22:56:41.202Z,22.10
2022-09-13T22:59:12.864Z,22.10
2022-09-13T23:01:40.273Z,22.10
2022-09-13T23:04:07.591Z,22.10
2022-09-13T23:06:35.585Z,22.10
2022-09-13T23:09:06.479Z,22.00
2022-09-13T23:11:36.149Z,22.10
2022-09-13T23:14:06.186Z,22.00
2022-09-13T23:16:38.923Z,22.00
2022-09-13T23:19:06.220Z,22.10
2022-09-13T23:21:35.915Z,22.00
2022-09-13T23:24:05.376Z,22.00
2022-09-13T23:26:33.477Z,22.00
2022-09-13T23:29:02.247Z,21.90
2022-09-13T23:31:31.705Z,21.90
2022-09-13T23:34:02.804Z,21.90
2022-09-13T23:36:37.095Z,21.80
2022-09-13T23:39:06.110Z,21.80
2022-09-13T23:41:34.235Z,21.80
2022-09-13T23:44:02.902Z,21.80
2022-09-13T23:46:30.169Z,21.80
2022-09-13T23:48:57.239Z,21.80
2022-09-13T23:51:25.749Z,21.90
2022-09-13T23:53:56.987Z,21.90
2022-09-13T23:56:25.720Z,21.90
2022-09-13T23:58:53.110Z,21.90
